CheckWX is a tool to help pilots better visualize weather data.  It is not intended as a substitute for an official pre-flight weather briefing.

15:11:04 UTC

KAUS TAF
Austin-Bergstrom International Airport
Austin, Texas, USA
KAUS 191120Z 1912/2018 VRB03KT P6SM SKC FM191800 18009KT P6SM SCT250 FM200900 17005KT P6SM BKN015

Nov-19@
12:00 UTC

Nov-19 @ 12:00 UTC

Nov-19@
18:00 UTC

Nov-19 @ 18:00 UTC

KAUS 191120Z 1912/2018 VRB03KT P6SM SKC
Wind
  • Variable at 3 KTS
Cloud Levels
  • Clear skies

Nov-19@
18:00 UTC

Nov-19 @ 18:00 UTC

Nov-20@
09:00 UTC

Nov-20 @ 09:00 UTC

FM191800 18009KT P6SM SCT250

From

From Standard forecast or significant change

Wind
  • 180° at 9 KTS
Cloud Levels
  • Scattered at 25,000' AGL

Nov-20@
09:00 UTC

Nov-20 @ 09:00 UTC

Nov-20@
18:00 UTC

Nov-20 @ 18:00 UTC

FM200900 17005KT P6SM BKN015

From

From Standard forecast or significant change

Wind
  • 170° at 5 KTS
Cloud Levels
  • Broken at 1,500' AGL